<?xml version="1.0" encoding="UTF-8" standalone="no" ?>
<gpx xmlns="http://www.topografix.com/GPX/1/1" xmlns:xsi="http://www.w3.org/2001/XMLSchema-instance" xsi:schemaLocation="http://www.topografix.com/GPX/1/1 http://www.topografix.com/GPX/1/1/gpx.xsd" version="1.1" creator="VisuGPX - https://www.visugpx.com">
  <metadata>
    <name>Loire sur Rhône ramml grande marche</name>
    <desc><![CDATA[reconnaissance loire/rh 11-12-2013 grande marche]]></desc>
  </metadata>
  <wpt lat="46.27973" lon="5.67917">
    <ele>555</ele>
    <name><![CDATA[001]]></name>
    <desc><![CDATA[22-SEP-13 17:14:25]]></desc>
    <cmt><![CDATA[22-SEP-13 17:14:25]]></cmt>
  </wpt>
  <wpt lat="45.55521" lon="4.77909">
    <ele>259</ele>
    <name><![CDATA[002]]></name>
    <desc><![CDATA[08-OCT-13 9:30:42]]></desc>
    <cmt><![CDATA[08-OCT-13 9:30:42]]></cmt>
  </wpt>
  <wpt lat="45.55518" lon="4.77907">
    <ele>259</ele>
    <name><![CDATA[003]]></name>
    <desc><![CDATA[08-OCT-13 9:30:45]]></desc>
    <cmt><![CDATA[08-OCT-13 9:30:45]]></cmt>
  </wpt>
  <wpt lat="45.55514" lon="4.77904">
    <ele>259</ele>
    <name><![CDATA[004]]></name>
    <desc><![CDATA[08-OCT-13 9:30:48]]></desc>
    <cmt><![CDATA[08-OCT-13 9:30:48]]></cmt>
  </wpt>
  <wpt lat="45.55511" lon="4.77901">
    <ele>259</ele>
    <name><![CDATA[005]]></name>
    <desc><![CDATA[08-OCT-13 9:30:52]]></desc>
    <cmt><![CDATA[08-OCT-13 9:30:52]]></cmt>
  </wpt>
  <wpt lat="45.55504" lon="4.77895">
    <ele>259</ele>
    <name><![CDATA[006]]></name>
    <desc><![CDATA[08-OCT-13 9:30:58]]></desc>
    <cmt><![CDATA[08-OCT-13 9:30:58]]></cmt>
  </wpt>
  <wpt lat="45.55486" lon="4.77884">
    <ele>263</ele>
    <name><![CDATA[007]]></name>
    <desc><![CDATA[08-OCT-13 9:31:10]]></desc>
    <cmt><![CDATA[08-OCT-13 9:31:10]]></cmt>
  </wpt>
  <wpt lat="45.55485" lon="4.7788">
    <ele>263</ele>
    <name><![CDATA[008]]></name>
    <desc><![CDATA[08-OCT-13 9:31:14]]></desc>
    <cmt><![CDATA[08-OCT-13 9:31:14]]></cmt>
  </wpt>
  <wpt lat="45.55393" lon="4.75983">
    <ele>379</ele>
    <name><![CDATA[009]]></name>
    <desc><![CDATA[08-OCT-13 10:29:14]]></desc>
    <cmt><![CDATA[08-OCT-13 10:29:14]]></cmt>
  </wpt>
  <wpt lat="45.56235" lon="4.79783">
    <ele>185</ele>
    <name><![CDATA[010]]></name>
    <desc><![CDATA[08-OCT-13 11:17:23]]></desc>
    <cmt><![CDATA[08-OCT-13 11:17:23]]></cmt>
  </wpt>
  <trk>
    <name><![CDATA[ACTIVE LOG 003]]></name>
    <trkseg>
      <trkpt lat="45.56241" lon="4.79833">
        <ele>180</ele>
        <time>2013-12-11T07:34:28Z</time>
      </trkpt>
      <trkpt lat="45.56193" lon="4.7974">
        <ele>191</ele>
        <time>2013-12-11T07:36:54Z</time>
      </trkpt>
      <trkpt lat="45.56174" lon="4.79639">
        <ele>192</ele>
        <time>2013-12-11T07:37:45Z</time>
      </trkpt>
      <trkpt lat="45.56127" lon="4.79554">
        <ele>197</ele>
        <time>2013-12-11T07:38:37Z</time>
      </trkpt>
      <trkpt lat="45.56118" lon="4.7942">
        <ele>195</ele>
        <time>2013-12-11T07:39:28Z</time>
      </trkpt>
      <trkpt lat="45.56088" lon="4.79298">
        <ele>196</ele>
        <time>2013-12-11T07:40:13Z</time>
      </trkpt>
      <trkpt lat="45.56054" lon="4.79161">
        <ele>197</ele>
        <time>2013-12-11T07:41:06Z</time>
      </trkpt>
      <trkpt lat="45.55988" lon="4.78931">
        <ele>208</ele>
        <time>2013-12-11T07:42:22Z</time>
      </trkpt>
      <trkpt lat="45.55914" lon="4.78711">
        <ele>217</ele>
        <time>2013-12-11T07:44:07Z</time>
      </trkpt>
      <trkpt lat="45.55805" lon="4.78464">
        <ele>230</ele>
        <time>2013-12-11T07:46:28Z</time>
      </trkpt>
      <trkpt lat="45.55706" lon="4.78215">
        <ele>240</ele>
        <time>2013-12-11T07:48:36Z</time>
      </trkpt>
      <trkpt lat="45.55582" lon="4.77984">
        <ele>250</ele>
        <time>2013-12-11T07:51:02Z</time>
      </trkpt>
      <trkpt lat="45.55424" lon="4.77697">
        <ele>269</ele>
        <time>2013-12-11T07:54:37Z</time>
      </trkpt>
      <trkpt lat="45.55399" lon="4.7748">
        <ele>282</ele>
        <time>2013-12-11T07:58:05Z</time>
      </trkpt>
      <trkpt lat="45.55472" lon="4.77395">
        <ele>314</ele>
        <time>2013-12-11T08:02:15Z</time>
      </trkpt>
      <trkpt lat="45.55445" lon="4.77201">
        <ele>339</ele>
        <time>2013-12-11T08:04:40Z</time>
      </trkpt>
      <trkpt lat="45.55539" lon="4.77104">
        <ele>350</ele>
        <time>2013-12-11T08:06:14Z</time>
      </trkpt>
      <trkpt lat="45.55625" lon="4.77037">
        <ele>352</ele>
        <time>2013-12-11T08:07:08Z</time>
      </trkpt>
      <trkpt lat="45.55719" lon="4.77068">
        <ele>355</ele>
        <time>2013-12-11T08:08:08Z</time>
      </trkpt>
      <trkpt lat="45.55799" lon="4.77129">
        <ele>353</ele>
        <time>2013-12-11T08:08:46Z</time>
      </trkpt>
      <trkpt lat="45.55891" lon="4.77153">
        <ele>356</ele>
        <time>2013-12-11T08:09:50Z</time>
      </trkpt>
      <trkpt lat="45.55987" lon="4.77157">
        <ele>355</ele>
        <time>2013-12-11T08:11:45Z</time>
      </trkpt>
      <trkpt lat="45.55943" lon="4.7705">
        <ele>359</ele>
        <time>2013-12-11T08:12:36Z</time>
      </trkpt>
      <trkpt lat="45.55921" lon="4.76908">
        <ele>362</ele>
        <time>2013-12-11T08:13:38Z</time>
      </trkpt>
      <trkpt lat="45.55851" lon="4.76805">
        <ele>364</ele>
        <time>2013-12-11T08:14:39Z</time>
      </trkpt>
      <trkpt lat="45.55771" lon="4.7674">
        <ele>366</ele>
        <time>2013-12-11T08:15:27Z</time>
      </trkpt>
      <trkpt lat="45.55701" lon="4.76661">
        <ele>366</ele>
        <time>2013-12-11T08:16:15Z</time>
      </trkpt>
      <trkpt lat="45.55652" lon="4.76546">
        <ele>371</ele>
        <time>2013-12-11T08:17:11Z</time>
      </trkpt>
      <trkpt lat="45.55613" lon="4.7643">
        <ele>377</ele>
        <time>2013-12-11T08:18:09Z</time>
      </trkpt>
      <trkpt lat="45.55542" lon="4.76421">
        <ele>379</ele>
        <time>2013-12-11T08:18:59Z</time>
      </trkpt>
      <trkpt lat="45.55459" lon="4.7648">
        <ele>377</ele>
        <time>2013-12-11T08:19:42Z</time>
      </trkpt>
      <trkpt lat="45.5536" lon="4.76521">
        <ele>368</ele>
        <time>2013-12-11T08:20:29Z</time>
      </trkpt>
      <trkpt lat="45.55272" lon="4.76574">
        <ele>359</ele>
        <time>2013-12-11T08:22:35Z</time>
      </trkpt>
      <trkpt lat="45.55194" lon="4.76594">
        <ele>348</ele>
        <time>2013-12-11T08:23:50Z</time>
      </trkpt>
      <trkpt lat="45.55258" lon="4.76599">
        <ele>356</ele>
        <time>2013-12-11T08:24:59Z</time>
      </trkpt>
      <trkpt lat="45.5532" lon="4.7663">
        <ele>358</ele>
        <time>2013-12-11T08:26:38Z</time>
      </trkpt>
      <trkpt lat="45.55341" lon="4.76745">
        <ele>361</ele>
        <time>2013-12-11T08:28:00Z</time>
      </trkpt>
      <trkpt lat="45.55261" lon="4.7687">
        <ele>337</ele>
        <time>2013-12-11T08:29:43Z</time>
      </trkpt>
      <trkpt lat="45.55185" lon="4.76901">
        <ele>313</ele>
        <time>2013-12-11T08:31:17Z</time>
      </trkpt>
      <trkpt lat="45.55061" lon="4.76731">
        <ele>311</ele>
        <time>2013-12-11T08:33:17Z</time>
      </trkpt>
      <trkpt lat="45.54996" lon="4.76797">
        <ele>324</ele>
        <time>2013-12-11T08:36:31Z</time>
      </trkpt>
      <trkpt lat="45.54999" lon="4.76999">
        <ele>332</ele>
        <time>2013-12-11T08:38:43Z</time>
      </trkpt>
      <trkpt lat="45.54924" lon="4.76927">
        <ele>345</ele>
        <time>2013-12-11T08:40:44Z</time>
      </trkpt>
      <trkpt lat="45.54839" lon="4.76985">
        <ele>353</ele>
        <time>2013-12-11T08:42:10Z</time>
      </trkpt>
      <trkpt lat="45.54776" lon="4.7708">
        <ele>360</ele>
        <time>2013-12-11T08:43:11Z</time>
      </trkpt>
      <trkpt lat="45.54832" lon="4.77177">
        <ele>359</ele>
        <time>2013-12-11T08:44:32Z</time>
      </trkpt>
      <trkpt lat="45.54887" lon="4.77292">
        <ele>362</ele>
        <time>2013-12-11T08:45:42Z</time>
      </trkpt>
      <trkpt lat="45.54812" lon="4.77357">
        <ele>368</ele>
        <time>2013-12-11T08:46:50Z</time>
      </trkpt>
      <trkpt lat="45.54753" lon="4.77398">
        <ele>369</ele>
        <time>2013-12-11T08:47:50Z</time>
      </trkpt>
      <trkpt lat="45.54806" lon="4.775">
        <ele>366</ele>
        <time>2013-12-11T08:48:30Z</time>
      </trkpt>
      <trkpt lat="45.54844" lon="4.77625">
        <ele>358</ele>
        <time>2013-12-11T08:49:10Z</time>
      </trkpt>
      <trkpt lat="45.54907" lon="4.77728">
        <ele>355</ele>
        <time>2013-12-11T08:49:54Z</time>
      </trkpt>
      <trkpt lat="45.54972" lon="4.77838">
        <ele>351</ele>
        <time>2013-12-11T08:50:41Z</time>
      </trkpt>
      <trkpt lat="45.55022" lon="4.77963">
        <ele>351</ele>
        <time>2013-12-11T08:51:31Z</time>
      </trkpt>
      <trkpt lat="45.55065" lon="4.7808">
        <ele>349</ele>
        <time>2013-12-11T08:52:31Z</time>
      </trkpt>
      <trkpt lat="45.55079" lon="4.78212">
        <ele>343</ele>
        <time>2013-12-11T08:53:12Z</time>
      </trkpt>
      <trkpt lat="45.551" lon="4.78334">
        <ele>336</ele>
        <time>2013-12-11T08:54:09Z</time>
      </trkpt>
      <trkpt lat="45.55192" lon="4.78343">
        <ele>330</ele>
        <time>2013-12-11T08:54:49Z</time>
      </trkpt>
      <trkpt lat="45.55286" lon="4.78356">
        <ele>324</ele>
        <time>2013-12-11T08:55:30Z</time>
      </trkpt>
      <trkpt lat="45.55369" lon="4.78306">
        <ele>320</ele>
        <time>2013-12-11T08:56:10Z</time>
      </trkpt>
      <trkpt lat="45.55444" lon="4.78273">
        <ele>313</ele>
        <time>2013-12-11T08:56:58Z</time>
      </trkpt>
      <trkpt lat="45.55422" lon="4.78152">
        <ele>309</ele>
        <time>2013-12-11T08:58:21Z</time>
      </trkpt>
      <trkpt lat="45.5553" lon="4.78193">
        <ele>282</ele>
        <time>2013-12-11T09:00:09Z</time>
      </trkpt>
      <trkpt lat="45.55534" lon="4.78089">
        <ele>266</ele>
        <time>2013-12-11T09:01:29Z</time>
      </trkpt>
      <trkpt lat="45.55483" lon="4.7796">
        <ele>268</ele>
        <time>2013-12-11T09:02:19Z</time>
      </trkpt>
      <trkpt lat="45.5552" lon="4.77912">
        <ele>259</ele>
        <time>2013-12-11T09:04:17Z</time>
      </trkpt>
      <trkpt lat="45.55608" lon="4.78021">
        <ele>250</ele>
        <time>2013-12-11T09:05:17Z</time>
      </trkpt>
      <trkpt lat="45.55684" lon="4.7815">
        <ele>243</ele>
        <time>2013-12-11T09:06:21Z</time>
      </trkpt>
      <trkpt lat="45.5574" lon="4.78298">
        <ele>237</ele>
        <time>2013-12-11T09:07:25Z</time>
      </trkpt>
      <trkpt lat="45.558" lon="4.78432">
        <ele>231</ele>
        <time>2013-12-11T09:08:30Z</time>
      </trkpt>
      <trkpt lat="45.55856" lon="4.78588">
        <ele>222</ele>
        <time>2013-12-11T09:09:29Z</time>
      </trkpt>
      <trkpt lat="45.55933" lon="4.78702">
        <ele>220</ele>
        <time>2013-12-11T09:10:23Z</time>
      </trkpt>
      <trkpt lat="45.55979" lon="4.78847">
        <ele>215</ele>
        <time>2013-12-11T09:11:13Z</time>
      </trkpt>
      <trkpt lat="45.56022" lon="4.78992">
        <ele>207</ele>
        <time>2013-12-11T09:11:58Z</time>
      </trkpt>
      <trkpt lat="45.56052" lon="4.79158">
        <ele>198</ele>
        <time>2013-12-11T09:13:08Z</time>
      </trkpt>
      <trkpt lat="45.56099" lon="4.79315">
        <ele>196</ele>
        <time>2013-12-11T09:14:09Z</time>
      </trkpt>
      <trkpt lat="45.56127" lon="4.79472">
        <ele>195</ele>
        <time>2013-12-11T09:15:11Z</time>
      </trkpt>
      <trkpt lat="45.56143" lon="4.79616">
        <ele>197</ele>
        <time>2013-12-11T09:16:28Z</time>
      </trkpt>
      <trkpt lat="45.56197" lon="4.79707">
        <ele>191</ele>
        <time>2013-12-11T09:17:15Z</time>
      </trkpt>
      <trkpt lat="45.5624" lon="4.79811">
        <ele>182</ele>
        <time>2013-12-11T09:17:53Z</time>
      </trkpt>
      <trkpt lat="45.56246" lon="4.79828">
        <ele>180</ele>
        <time>2013-12-11T09:19:20Z</time>
      </trkpt>
    </trkseg>
  </trk>
</gpx>